Manti, Utah
Current Conditions -  °F | °C
As of 10:35 PM on Monday 26 Jan 2015 (Local Time) from KDTA Reporting Station
Clear Clear  
Wind Chill: 25°   Ceiling: Unl
Heat Index: 32°   Visibility: 10mi
Dew Point: 31°   Wind: 7mph
Humidity: 96%   Direction: 170°S
Pressure: 30.21"   Gusts: NA
Location:  39.27°N, 111.64°W
Report Text: KDTA 270535Z AUTO 17006KT 10SM CLR 00/M01 A3021 RMK AO1 T10011007
Loading
Personal Weather Stations






























Interactive Weather Map New forecast layout! Learn more

10-Day Weather Forecast

Advertisements
Track Severe Weather on mobile